Time;durP1;ratioP1;P1;durP2;ratioP2;P2;SDS_P1;SDS_P2;PMS_P1;PMS_P2;Temp;Humidity;BMP_temperature;BMP_pressure;BME280_temperature;BME280_humidity;BME280_pressure;Samples;Min_cycle;Max_cycle;Signal;HPM_P1;HPM_P2
2023/02/02 00:01:49;;;;;;;;;;;;;;;1.67;84.17;98281.22;107547;1254;61557;-38
2023/02/02 00:04:19;;;;;;;19.00;6.80;;;;;;;1.59;84.39;98284.44;107533;1257;74311;-37
2023/02/02 00:06:47;;;;;;;14.50;6.20;;;;;;;1.53;84.50;98283.73;107475;1254;70006;-37
2023/02/02 00:09:17;;;;;;;15.10;5.20;;;;;;;1.56;84.47;98284.14;107487;1254;72751;-37
2023/02/02 00:11:46;;;;;;;;;;;;;;;1.60;84.23;98280.42;107557;1254;60378;-37
2023/02/02 00:14:16;;;;;;;9.70;5.70;;;;;;;1.54;84.52;98281.27;107555;1253;60991;-37
2023/02/02 00:16:45;;;;;;;11.10;4.40;;;;;;;1.48;84.65;98280.52;107555;1254;72497;-38
2023/02/02 00:19:16;;;;;;;15.80;6.10;;;;;;;1.48;84.75;98279.30;107505;1257;69700;-38
2023/02/02 00:21:45;;;;;;;16.30;5.80;;;;;;;1.52;84.56;98278.67;107469;1254;73897;-37
2023/02/02 00:24:16;;;;;;;13.40;5.90;;;;;;;1.58;84.62;98274.45;107527;1253;60554;-37
2023/02/02 00:26:50;;;;;;;13.90;6.10;;;;;;;1.61;84.37;98272.44;107469;1254;61542;-37
2023/02/02 00:29:24;;;;;;;14.40;5.80;;;;;;;1.60;84.22;98272.48;107528;1254;75031;-38
2023/02/02 00:31:53;;;;;;;15.10;5.50;;;;;;;1.58;84.19;98272.64;107458;1254;69762;-37
2023/02/02 00:34:22;;;;;;;13.80;5.70;;;;;;;1.59;84.15;98272.14;107490;1253;73875;-37
2023/02/02 00:36:51;;;;;;;15.10;5.90;;;;;;;1.63;83.93;98269.75;107757;1253;60418;-37
2023/02/02 00:39:24;;;;;;;10.30;6.10;;;;;;;1.62;83.82;98270.58;107611;1257;61261;-37
2023/02/02 00:41:54;;;;;;;10.90;6.20;;;;;;;1.59;83.94;98272.30;107680;1254;74719;-37
2023/02/02 00:47:09;;;;;;;14.90;6.40;;;;;;;1.56;83.88;98274.23;107614;1253;72903;-38
2023/02/02 00:49:38;;;;;;;15.00;6.30;;;;;;;1.57;83.83;98271.61;107510;1254;60803;-37
2023/02/02 00:52:06;;;;;;;13.00;6.20;;;;;;;1.59;83.94;98273.36;107475;1253;61540;-37
2023/02/02 00:54:36;;;;;;;14.80;6.80;;;;;;;1.59;84.04;98272.46;107463;1254;73778;-37
2023/02/02 00:57:05;;;;;;;14.90;6.50;;;;;;;1.58;83.91;98268.60;107474;1253;68463;-37
2023/02/02 00:59:34;;;;;;;14.90;5.90;;;;;;;1.54;83.72;98259.05;107364;1254;74221;-37
2023/02/02 01:02:02;;;;;;;15.50;6.40;;;;;;;1.63;83.45;98266.41;107448;1254;60818;-37
2023/02/02 01:04:31;;;;;;;13.50;6.30;;;;;;;1.64;83.75;98266.35;107481;1254;61578;-37
2023/02/02 01:06:59;;;;;;;16.40;6.50;;;;;;;1.63;83.67;98268.16;107441;1253;75103;-37
2023/02/02 01:09:28;;;;;;;12.80;6.20;;;;;;;1.62;83.69;98266.15;107493;1254;69997;-37
2023/02/02 01:11:59;;;;;;;12.40;5.80;;;;;;;1.64;83.54;98265.59;107495;1257;72768;-37
2023/02/02 01:14:27;;;;;;;14.50;6.10;;;;;;;1.66;83.33;98270.20;107530;1253;60521;-38
2023/02/02 01:16:56;;;;;;;14.50;6.00;;;;;;;1.67;83.34;98264.35;107479;1253;61502;-38
2023/02/02 01:19:26;;;;;;;14.90;6.40;;;;;;;1.66;83.62;98263.84;107464;1254;73902;-38
2023/02/02 01:21:55;;;;;;;14.80;6.60;;;;;;;1.65;83.35;98266.31;107475;1254;70413;-38
2023/02/02 01:24:23;;;;;;;20.30;6.90;;;;;;;1.61;83.31;98263.89;107504;1254;73874;-38
2023/02/02 01:26:52;;;;;;;12.80;6.10;;;;;;;1.62;83.16;98259.67;107514;1257;62345;-38
2023/02/02 01:29:20;;;;;;;13.20;6.20;;;;;;;1.67;83.11;98260.29;107502;1253;61534;-38
2023/02/02 01:31:48;;;;;;;17.20;6.50;;;;;;;1.67;82.93;98257.23;107478;1254;74847;-38
2023/02/02 01:34:17;;;;;;;14.50;6.30;;;;;;;1.65;83.31;98254.34;107476;1253;69610;-38
2023/02/02 01:36:46;;;;;;;14.30;6.40;;;;;;;1.62;83.03;98250.27;107485;1254;73976;-38
2023/02/02 01:39:14;;;;;;;15.90;6.40;;;;;;;1.59;82.94;98254.60;107469;1253;60522;-38
2023/02/02 01:41:43;;;;;;;17.00;6.20;;;;;;;1.61;82.87;98254.81;107497;1253;61322;-38
2023/02/02 01:44:49;;;;;;;13.20;6.00;;;;;;;1.65;83.02;98257.48;107455;1257;75049;-37
2023/02/02 01:47:22;;;;;;;15.10;6.30;;;;;;;1.65;83.03;98251.88;107480;1253;68374;-37
2023/02/02 01:49:51;;;;;;;17.70;7.10;;;;;;;1.62;83.05;98253.27;107561;1253;73788;-37
2023/02/02 01:52:21;;;;;;;16.70;7.00;;;;;;;1.62;82.78;98255.84;107491;1253;62731;-37
2023/02/02 01:54:52;;;;;;;16.60;6.60;;;;;;;1.64;82.65;98254.85;107471;1254;61518;-37
2023/02/02 01:57:28;;;;;;;19.40;6.60;;;;;;;1.69;82.44;98254.39;107510;1254;73349;-37
2023/02/02 01:59:57;;;;;;;15.50;6.20;;;;;;;1.69;82.62;98255.03;107494;1253;68464;-37
2023/02/02 02:02:28;;;;;;;15.50;6.60;;;;;;;1.67;82.56;98257.34;107502;1253;73673;-37
2023/02/02 02:04:59;;;;;;;15.80;7.10;;;;;;;1.66;82.53;98257.65;107508;1257;60645;-37
2023/02/02 02:07:27;;;;;;;19.70;6.60;;;;;;;1.62;82.45;98254.61;107504;1253;61530;-36
2023/02/02 02:09:56;;;;;;;9.70;5.10;;;;;;;1.64;82.46;98255.13;107497;1254;75143;-37
2023/02/02 02:12:25;;;;;;;12.70;6.00;;;;;;;1.68;82.36;98254.05;107487;1253;69692;-37
2023/02/02 02:18:10;;;;;;;16.90;6.80;;;;;;;1.61;82.32;98253.98;107489;1253;60767;-38
2023/02/02 02:27:43;;;;;;;20.70;6.90;;;;;;;1.71;82.35;98266.77;106928;1261;69709;-38
2023/02/02 02:30:20;;;;;;;17.10;6.50;;;;;;;1.69;82.34;98262.05;107487;1253;73857;-38
2023/02/02 02:33:02;;;;;;;18.10;6.70;;;;;;;1.69;82.36;98269.52;107387;1253;60811;-38
2023/02/02 02:35:35;;;;;;;13.70;6.50;;;;;;;1.66;82.35;98273.77;107521;1254;61259;-38
2023/02/02 02:38:03;;;;;;;15.20;7.20;;;;;;;1.65;82.44;98277.34;107494;1254;74919;-38
2023/02/02 02:40:41;;;;;;;14.80;6.40;;;;;;;1.68;82.45;98278.86;107506;1254;68678;-38
2023/02/02 02:43:23;;;;;;;14.10;6.20;;;;;;;1.68;82.34;98279.23;107476;1257;72906;-38
2023/02/02 02:45:53;;;;;;;14.40;6.10;;;;;;;1.67;82.65;98281.02;107460;1253;60540;-38
2023/02/02 02:48:22;;;;;;;15.40;6.60;;;;;;;1.66;82.56;98277.20;107532;1253;60407;-38
2023/02/02 02:50:51;;;;;;;14.80;6.40;;;;;;;1.65;82.83;98280.39;107465;1253;75229;-38
2023/02/02 02:53:20;;;;;;;14.10;5.90;;;;;;;1.70;82.58;98283.09;107487;1254;70202;-38
2023/02/02 02:56:11;;;;;;;12.30;5.90;;;;;;;1.79;82.59;98280.72;107487;1254;73527;-37
2023/02/02 02:58:50;;;;;;;16.50;6.00;;;;;;;1.83;82.57;98282.84;107523;1253;60818;-38
2023/02/02 03:01:19;;;;;;;11.40;6.20;;;;;;;1.82;82.68;98281.89;107474;1253;60317;-37
2023/02/02 03:03:59;;;;;;;12.70;6.30;;;;;;;1.78;82.30;98290.60;107477;1253;75007;-37
2023/02/02 03:06:32;;;;;;;15.90;6.40;;;;;;;1.76;82.54;98292.20;107503;1253;68925;-37
2023/02/02 03:09:07;;;;;;;13.50;6.10;;;;;;;1.80;82.24;98289.98;107431;1254;72712;-38
2023/02/02 03:11:35;;;;;;;14.70;6.40;;;;;;;1.81;82.31;98291.02;107486;1253;60826;-37
2023/02/02 03:14:08;;;;;;;14.20;7.10;;;;;;;1.82;82.42;98294.25;107493;1253;61642;-37
2023/02/02 03:16:36;;;;;;;15.50;6.50;;;;;;;1.79;82.22;98298.36;107426;1253;75151;-37
2023/02/02 03:19:05;;;;;;;15.90;6.60;;;;;;;1.73;82.45;98288.75;107496;1257;69918;-38
2023/02/02 03:21:34;;;;;;;13.40;6.40;;;;;;;1.72;82.22;98297.36;107442;1253;73874;-37
2023/02/02 03:24:03;;;;;;;15.40;5.90;;;;;;;1.73;82.28;98291.83;107493;1253;60304;-37
2023/02/02 03:26:32;;;;;;;15.80;6.70;;;;;;;1.71;82.26;98295.02;107505;1253;61603;-37
2023/02/02 03:29:00;;;;;;;15.70;6.50;;;;;;;1.68;82.47;98296.14;107474;1254;75056;-37
2023/02/02 03:31:30;;;;;;;;;;;;;;;1.64;82.37;98295.36;107482;1253;69818;-37
2023/02/02 03:33:58;;;;;;;15.30;6.00;;;;;;;1.59;82.70;98295.34;107462;1253;73863;-37
2023/02/02 03:36:27;;;;;;;12.00;5.40;;;;;;;1.58;82.56;98295.69;107427;1253;60429;-37
2023/02/02 03:38:59;;;;;;;12.80;6.30;;;;;;;1.59;82.81;98296.78;107460;1257;61538;-37
2023/02/02 03:41:27;;;;;;;10.60;6.30;;;;;;;1.56;82.96;98295.29;107498;1257;74757;-37
2023/02/02 03:43:56;;;;;;;12.60;6.10;;;;;;;1.54;83.03;98295.10;107509;1253;69974;-37
2023/02/02 03:46:25;;;;;;;13.30;6.00;;;;;;;1.54;83.11;98294.09;107474;1253;72917;-37
2023/02/02 03:48:53;;;;;;;11.60;5.70;;;;;;;1.59;82.67;98295.02;107506;1254;60502;-37
2023/02/02 03:51:22;;;;;;;16.40;7.10;;;;;;;1.62;82.79;98299.55;107506;1253;61550;-37
2023/02/02 03:53:50;;;;;;;12.10;6.10;;;;;;;1.62;82.94;98296.98;107475;1253;73864;-37
2023/02/02 03:56:19;;;;;;;13.20;6.60;;;;;;;1.61;82.73;98296.02;107517;1253;69603;-37
2023/02/02 03:58:48;;;;;;;16.10;6.90;;;;;;;1.56;82.77;98294.23;107500;1253;73603;-37
2023/02/02 04:01:16;;;;;;;16.50;6.80;;;;;;;1.58;82.50;98296.07;107476;1253;61350;-37
2023/02/02 04:03:46;;;;;;;12.10;4.80;;;;;;;1.64;82.41;98297.81;107495;1253;61328;-37
2023/02/02 04:06:14;;;;;;;13.90;6.40;;;;;;;1.65;82.26;98298.39;107451;1253;75077;-37
2023/02/02 04:08:42;;;;;;;10.90;6.00;;;;;;;1.64;82.56;98303.15;107509;1257;69985;-37
2023/02/02 04:11:11;;;;;;;13.40;6.90;;;;;;;1.62;82.52;98301.63;107504;1253;72391;-37
2023/02/02 04:13:42;;;;;;;41.70;27.30;;;;;;;1.59;82.54;98306.55;107441;1253;62364;-37
2023/02/02 04:16:11;;;;;;;22.90;10.10;;;;;;;1.60;82.50;98303.30;107472;1253;61480;-37
2023/02/02 04:18:39;;;;;;;13.40;6.20;;;;;;;1.61;82.41;98306.25;107490;1253;74843;-37
2023/02/02 04:21:08;;;;;;;12.60;6.90;;;;;;;1.61;82.61;98308.77;107471;1254;69993;-37
2023/02/02 04:23:36;;;;;;;17.10;8.60;;;;;;;1.60;82.63;98306.51;107512;1253;73881;-37
2023/02/02 04:26:04;;;;;;;11.20;6.20;;;;;;;1.58;82.47;98309.05;107502;1253;60757;-37
2023/02/02 04:28:33;;;;;;;11.70;5.70;;;;;;;1.54;82.62;98308.95;107536;1253;60674;-37
2023/02/02 04:31:02;;;;;;;12.20;6.70;;;;;;;1.54;82.50;98310.71;106796;1253;1003496;-37
2023/02/02 04:33:32;;;;;;;11.00;6.00;;;;;;;1.58;82.62;98313.83;107522;1253;69730;-37
2023/02/02 04:36:01;;;;;;;13.10;6.30;;;;;;;1.56;83.22;98311.92;107472;1253;73779;-37
2023/02/02 04:38:33;;;;;;;13.30;7.20;;;;;;;1.50;84.06;98317.13;107494;1253;60770;-37
2023/02/02 04:41:08;;;;;;;11.90;6.40;;;;;;;1.46;84.49;98321.85;107540;1253;61501;-37
2023/02/02 04:43:37;;;;;;;13.30;6.20;;;;;;;1.47;84.99;98320.68;107478;1253;75005;-37
2023/02/02 04:46:06;;;;;;;14.60;6.20;;;;;;;1.52;85.17;98327.50;107556;1257;68809;-37
2023/02/02 04:48:35;;;;;;;;;;;;;;;1.53;85.35;98323.79;107473;1253;73615;-37
2023/02/02 04:51:05;;;;;;;11.50;6.40;;;;;;;1.47;85.82;98326.31;107480;1253;60710;-37
2023/02/02 04:53:34;;;;;;;13.30;6.40;;;;;;;1.45;86.23;98328.30;107546;1253;61649;-37
2023/02/02 04:56:07;;;;;;;12.50;6.40;;;;;;;1.53;85.94;98321.12;107540;1253;75014;-37
2023/02/02 04:58:35;;;;;;;13.00;6.00;;;;;;;1.62;85.78;98324.14;107564;1253;68457;-37
2023/02/02 05:01:17;;;;;;;14.30;6.50;;;;;;;1.66;85.92;98324.07;107492;1253;73328;-37
2023/02/02 05:03:46;;;;;;;16.10;7.00;;;;;;;1.70;85.67;98324.73;107449;1257;59736;-38
2023/02/02 05:06:16;;;;;;;14.30;6.50;;;;;;;1.69;85.30;98327.98;107527;1254;61420;-38
2023/02/02 05:08:46;;;;;;;13.50;6.60;;;;;;;1.69;85.00;98326.69;107521;1253;74716;-38
2023/02/02 05:11:19;;;;;;;12.20;6.60;;;;;;;1.74;84.89;98324.66;107538;1253;68298;-38
2023/02/02 05:13:52;;;;;;;10.50;6.30;;;;;;;1.77;84.76;98325.75;107482;1253;71939;-38
2023/02/02 05:16:21;;;;;;;14.80;6.70;;;;;;;1.77;84.70;98325.38;107474;1253;60507;-38
2023/02/02 05:18:50;;;;;;;13.40;6.60;;;;;;;1.78;84.65;98328.33;107524;1253;61547;-38
2023/02/02 05:21:19;;;;;;;14.20;7.00;;;;;;;1.77;84.58;98328.73;107496;1253;74176;-38
2023/02/02 05:23:48;;;;;;;14.30;7.50;;;;;;;1.85;84.43;98332.15;107519;1255;70053;-37
2023/02/02 05:26:24;;;;;;;11.40;6.00;;;;;;;1.93;84.18;98328.86;107533;1253;73556;-38
2023/02/02 05:28:52;;;;;;;18.40;8.20;;;;;;;1.95;83.91;98328.80;107459;1253;60820;-37
2023/02/02 05:31:21;;;;;;;20.20;12.20;;;;;;;1.94;83.73;98335.38;107499;1253;60350;-38
2023/02/02 05:33:49;;;;;;;33.70;22.80;;;;;;;1.90;83.43;98336.86;107455;1253;75061;-37
2023/02/02 05:36:18;;;;;;;18.70;7.90;;;;;;;1.90;83.08;98340.29;107578;1253;69769;-37
2023/02/02 05:38:46;;;;;;;12.50;6.60;;;;;;;1.96;82.79;98343.86;107505;1253;73838;-37
2023/02/02 05:41:15;;;;;;;12.40;6.70;;;;;;;1.98;82.78;98347.53;107485;1253;60772;-38
2023/02/02 05:43:43;;;;;;;10.80;6.70;;;;;;;1.97;82.59;98348.20;107545;1253;61583;-38
2023/02/02 05:46:12;;;;;;;12.60;6.90;;;;;;;1.93;82.42;98338.86;107491;1253;74011;-37
2023/02/02 05:48:40;;;;;;;12.20;6.60;;;;;;;1.97;82.20;98349.04;107539;1253;69897;-37
2023/02/02 05:51:20;;;;;;;15.10;6.50;;;;;;;2.01;82.09;98350.99;107453;1253;73901;-38
2023/02/02 05:53:49;;;;;;;14.30;6.40;;;;;;;2.08;81.88;98353.75;107488;1254;59649;-37
2023/02/02 05:56:17;;;;;;;14.70;5.90;;;;;;;2.08;81.60;98358.43;107552;1253;61483;-37
2023/02/02 05:58:48;;;;;;;17.90;8.20;;;;;;;2.06;81.14;98358.50;107527;1253;74884;-38
2023/02/02 06:01:17;;;;;;;13.30;7.00;;;;;;;2.02;81.17;98357.22;107470;1253;70048;-38
2023/02/02 06:03:46;;;;;;;12.30;6.30;;;;;;;2.01;81.05;98361.02;107483;1253;73882;-37
2023/02/02 06:06:14;;;;;;;13.60;6.10;;;;;;;2.03;80.77;98362.98;107449;1253;62397;-37
2023/02/02 06:08:43;;;;;;;8.90;5.90;;;;;;;2.05;80.59;98369.41;107466;1253;60599;-37
2023/02/02 06:11:13;;;;;;;12.20;5.70;;;;;;;2.05;80.70;98366.36;107497;1255;74916;-37
2023/02/02 06:13:41;;;;;;;9.90;5.90;;;;;;;2.06;80.38;98365.91;107520;1253;68950;-37
2023/02/02 06:16:13;;;;;;;15.10;6.10;;;;;;;2.02;80.35;98371.42;107482;1253;73587;-37
2023/02/02 06:18:42;;;;;;;9.70;5.60;;;;;;;1.97;80.36;98373.07;107470;1257;62394;-37
2023/02/02 06:21:11;;;;;;;10.00;5.80;;;;;;;1.97;80.34;98373.06;107478;1253;61312;-37
2023/02/02 06:23:44;;;;;;;11.60;5.20;;;;;;;2.01;79.90;98370.32;107534;1253;74964;-37
2023/02/02 06:26:13;;;;;;;13.70;5.70;;;;;;;2.02;79.95;98373.86;107461;1253;69947;-37
2023/02/02 06:28:42;;;;;;;11.70;5.80;;;;;;;1.97;79.87;98374.61;107503;1253;74049;-37
2023/02/02 06:31:11;;;;;;;11.50;6.20;;;;;;;1.92;80.15;98374.95;107466;1253;60754;-36
2023/02/02 06:33:39;;;;;;;11.70;5.70;;;;;;;1.89;80.12;98375.61;107480;1253;60283;-38
2023/02/02 06:36:09;;;;;;;10.90;5.50;;;;;;;1.95;80.09;98376.05;107492;1253;75041;-38
2023/02/02 06:38:37;;;;;;;11.40;5.70;;;;;;;2.01;79.77;98378.05;107563;1253;68933;-37
2023/02/02 06:41:06;;;;;;;13.80;6.30;;;;;;;2.04;79.64;98379.61;107497;1257;73844;-37
2023/02/02 06:43:35;;;;;;;13.50;6.10;;;;;;;2.04;79.79;98385.94;107509;1253;60506;-37
2023/02/02 06:46:03;;;;;;;6.60;4.40;;;;;;;2.05;79.77;98389.48;107497;1253;61550;-37
2023/02/02 06:48:32;;;;;;;14.20;5.60;;;;;;;2.05;79.53;98391.64;107521;1253;75025;-37
2023/02/02 06:51:01;;;;;;;10.90;5.60;;;;;;;2.08;79.18;98395.02;107499;1253;69951;-37
2023/02/02 06:53:30;;;;;;;11.90;6.10;;;;;;;2.13;79.27;98392.30;107494;1253;73897;-38
2023/02/02 06:56:04;;;;;;;10.30;5.60;;;;;;;2.15;78.94;98390.39;107437;1253;60792;-38
2023/02/02 06:58:33;;;;;;;15.30;6.40;;;;;;;2.16;79.21;98392.64;107525;1253;60269;-38
2023/02/02 07:01:03;;;;;;;7.40;5.70;;;;;;;2.15;78.99;98395.21;107509;1253;75040;-38
2023/02/02 07:03:32;;;;;;;14.00;6.50;;;;;;;2.15;78.97;98395.81;107485;1253;69832;-38
2023/02/02 07:06:10;;;;;;;8.20;5.60;;;;;;;2.17;78.91;98394.81;107456;1253;73052;-38
2023/02/02 07:08:39;;;;;;;10.90;5.90;;;;;;;2.26;78.71;98397.58;106725;1253;1002915;-38
2023/02/02 07:11:12;;;;;;;8.10;5.70;;;;;;;2.27;78.67;98398.96;107459;1253;61256;-38
2023/02/02 07:13:46;;;;;;;14.70;6.40;;;;;;;2.25;78.81;98399.98;107480;1253;74525;-38
2023/02/02 07:16:16;;;;;;;9.90;6.20;;;;;;;2.25;78.69;98398.21;107469;1253;69929;-38
2023/02/02 07:18:47;;;;;;;9.80;5.90;;;;;;;2.25;78.73;98399.94;107536;1257;73903;-37
2023/02/02 07:21:18;;;;;;;9.10;5.60;;;;;;;2.29;78.85;98399.95;107435;1253;62278;-37
2023/02/02 07:23:47;;;;;;;9.30;6.00;;;;;;;2.35;78.68;98400.09;107514;1254;61538;-36
2023/02/02 07:26:16;;;;;;;8.90;5.80;;;;;;;2.38;78.88;98399.39;107523;1253;75292;-37
2023/02/02 07:28:45;;;;;;;12.60;5.70;;;;;;;2.41;78.62;98400.86;107506;1253;69698;-37
2023/02/02 07:31:14;;;;;;;11.10;6.10;;;;;;;2.42;78.55;98400.12;107516;1253;73848;-38
2023/02/02 07:33:43;;;;;;;9.10;6.20;;;;;;;2.41;78.29;98403.39;107558;1253;61995;-38
2023/02/02 07:36:13;;;;;;;5.20;4.20;;;;;;;2.46;78.23;98399.89;107527;1253;61323;-37
2023/02/02 07:38:42;;;;;;;12.10;6.90;;;;;;;2.50;78.02;98401.64;107536;1253;73794;-38
2023/02/02 07:41:10;;;;;;;11.30;6.90;;;;;;;2.51;78.07;98400.52;107520;1253;69883;-38
2023/02/02 07:43:39;;;;;;;9.50;6.30;;;;;;;2.52;78.01;98402.69;107538;1253;73790;-37
2023/02/02 10:23:32;;;;;;;7.40;6.50;;;;;;;5.34;68.45;98407.91;105185;1280;613471;-38
2023/02/02 10:26:27;;;;;;;8.10;6.60;;;;;;;5.56;67.39;98407.94;106379;1266;297699;-38
2023/02/02 10:29:07;;;;;;;7.60;5.90;;;;;;;5.40;67.08;98407.52;106739;1266;60570;-39
2023/02/02 10:31:40;;;;;;;8.10;6.00;;;;;;;5.23;67.43;98412.44;106825;1266;73609;-38
2023/02/02 10:34:35;;;;;;;10.90;6.50;;;;;;;5.13;67.84;98415.34;106765;1265;68791;-39
2023/02/02 10:37:36;;;;;;;9.10;6.70;;;;;;;5.08;67.92;98412.75;106724;1265;72850;-39
2023/02/02 10:40:17;;;;;;;9.40;6.80;;;;;;;5.01;67.92;98411.89;106765;1264;59855;-39
2023/02/02 10:45:52;;;;;;;8.90;6.70;;;;;;;4.89;68.04;98407.42;106735;1268;73423;-40
2023/02/02 10:48:22;;;;;;;8.20;6.30;;;;;;;4.88;68.41;98407.72;106786;1267;70244;-41
2023/02/02 10:50:53;;;;;;;7.60;6.50;;;;;;;4.89;68.39;98409.19;106813;1266;72628;-40
2023/02/02 10:53:21;;;;;;;7.80;6.00;;;;;;;4.89;68.66;98408.20;106703;1267;60753;-40
2023/02/02 10:56:04;;;;;;;9.70;6.40;;;;;;;4.92;68.50;98409.59;106762;1266;60533;-41
2023/02/02 10:58:45;;;;;;;9.10;5.90;;;;;;;4.94;68.61;98408.56;106741;1267;74229;-40
2023/02/02 11:01:16;;;;;;;7.50;5.50;;;;;;;4.95;68.14;98405.67;106715;1266;69594;-40
2023/02/02 11:03:45;;;;;;;8.50;5.80;;;;;;;4.93;68.25;98405.02;106753;1266;73725;-40
2023/02/02 11:09:03;;;;;;;9.80;6.10;;;;;;;4.81;67.83;98407.83;106736;1268;61373;-40
2023/02/02 11:11:41;;;;;;;11.20;6.70;;;;;;;4.65;67.70;98412.52;106733;1266;74156;-40
2023/02/02 11:14:13;;;;;;;10.50;6.30;;;;;;;4.55;67.98;98413.52;106700;1266;69851;-40
2023/02/02 11:16:42;;;;;;;10.30;6.30;;;;;;;4.45;68.47;98410.86;106707;1266;72570;-40
2023/02/02 11:19:17;;;;;;;10.70;6.50;;;;;;;4.35;68.98;98409.75;106777;1266;60192;-40
2023/02/02 11:21:53;;;;;;;8.70;5.20;;;;;;;4.35;69.42;98410.66;106758;1266;61561;-40
2023/02/02 11:24:39;;;;;;;8.30;5.70;;;;;;;4.40;69.74;98409.88;106801;1266;74114;-40
2023/02/02 11:27:14;;;;;;;8.50;5.80;;;;;;;4.42;69.66;98408.39;106738;1268;69005;-40
2023/02/02 11:29:56;;;;;;;9.30;5.90;;;;;;;4.41;69.39;98408.29;106732;1266;73853;-41
2023/02/02 11:32:28;;;;;;;10.80;6.00;;;;;;;4.37;69.49;98409.94;106769;1266;59716;-40
2023/02/02 11:35:03;;;;;;;9.30;5.90;;;;;;;4.30;69.35;98406.61;106743;1267;60382;-40
2023/02/02 11:37:36;;;;;;;9.40;5.60;;;;;;;4.25;69.61;98408.47;106725;1266;74254;-40
2023/02/02 11:40:31;;;;;;;7.60;5.10;;;;;;;4.25;69.70;98412.75;106754;1267;69931;-40
2023/02/02 11:43:02;;;;;;;10.20;5.80;;;;;;;4.30;69.85;98410.59;106711;1265;74359;-40
2023/02/02 11:45:36;;;;;;;8.80;5.70;;;;;;;4.26;69.70;98409.51;105964;1266;1003684;-40
2023/02/02 11:48:09;;;;;;;10.80;6.30;;;;;;;4.21;69.74;98412.95;106760;1266;61301;-40
2023/02/02 11:50:38;;;;;;;8.30;5.80;;;;;;;4.12;69.98;98417.05;106758;1266;73759;-40
2023/02/02 11:53:37;;;;;;;8.80;5.80;;;;;;;4.06;70.20;98420.86;106814;1270;67832;-40
2023/02/02 11:56:23;;;;;;;11.20;6.40;;;;;;;4.03;70.44;98418.33;106750;1267;71853;-40
2023/02/02 11:58:58;;;;;;;9.70;5.90;;;;;;;4.05;70.40;98419.39;106699;1266;61418;-40
2023/02/02 12:01:41;;;;;;;8.90;6.30;;;;;;;4.08;70.50;98416.71;106717;1268;61112;-40
2023/02/02 12:04:16;;;;;;;10.00;6.80;;;;;;;4.06;70.55;98419.93;106672;1266;74228;-40
2023/02/02 12:06:44;;;;;;;8.50;6.30;;;;;;;3.99;70.78;98421.56;106765;1265;67516;-40
2023/02/02 12:09:16;;;;;;;10.60;6.90;;;;;;;3.92;71.00;98420.92;106762;1265;73900;-40
2023/02/02 12:12:20;;;;;;;8.10;6.20;;;;;;;3.87;71.20;98422.63;106764;1266;59807;-39
2023/02/02 12:14:57;;;;;;;11.40;6.60;;;;;;;3.86;71.42;98421.36;106750;1266;61272;-39
2023/02/02 12:17:44;;;;;;;13.00;7.00;;;;;;;3.88;71.48;98419.97;106747;1266;73245;-40
2023/02/02 12:20:21;;;;;;;15.20;11.10;;;;;;;3.88;71.58;98425.70;106709;1266;69934;-40
2023/02/02 12:23:05;;;;;;;22.00;13.30;;;;;;;3.87;71.80;98427.50;106743;1266;73972;-40
2023/02/02 12:26:06;;;;;;;38.30;23.20;;;;;;;3.86;71.66;98428.34;106713;1265;60807;-40
2023/02/02 12:28:47;;;;;;;12.00;8.30;;;;;;;3.86;71.63;98424.48;106645;1266;60633;-40
2023/02/02 12:31:42;;;;;;;9.30;6.40;;;;;;;3.83;71.56;98427.15;106711;1265;74331;-40
2023/02/02 12:34:10;;;;;;;8.30;6.00;;;;;;;3.86;71.37;98420.66;106745;1263;70001;-40
2023/02/02 12:37:02;;;;;;;14.70;12.10;;;;;;;3.89;71.23;98421.84;106924;1263;73851;-40
2023/02/02 12:39:50;;;;;;;14.40;10.60;;;;;;;3.92;71.09;98427.27;106834;1263;60859;-40
2023/02/02 12:42:54;;;;;;;13.40;6.90;;;;;;;3.91;70.95;98429.55;106928;1262;61417;-40
2023/02/02 12:45:26;;;;;;;17.40;10.70;;;;;;;3.90;70.93;98429.45;106619;1267;73583;-40
2023/02/02 12:48:06;;;;;;;13.40;8.90;;;;;;;3.85;70.89;98425.64;106896;1263;69761;-40
2023/02/02 12:50:41;;;;;;;13.30;10.50;;;;;;;3.84;70.74;98430.33;106969;1263;73934;-39
2023/02/02 12:53:40;;;;;;;16.30;12.40;;;;;;;3.85;70.73;98430.38;106920;1262;62431;-39
2023/02/02 12:56:31;;;;;;;9.60;6.40;;;;;;;3.89;70.60;98430.34;106957;1262;60252;-39
2023/02/02 12:59:13;;;;;;;10.90;6.50;;;;;;;3.83;70.36;98426.63;106963;1265;73823;-39
2023/02/02 13:01:47;;;;;;;8.70;5.50;;;;;;;3.76;70.47;98424.04;106942;1263;70076;-39
2023/02/02 13:04:31;;;;;;;9.70;5.60;;;;;;;3.70;70.43;98417.73;106887;1262;72262;-39
2023/02/02 13:07:39;;;;;;;7.90;4.90;;;;;;;3.64;70.42;98418.71;106868;1262;61244;-40
2023/02/02 13:10:16;;;;;;;8.70;5.10;;;;;;;3.56;70.75;98421.66;106895;1263;61183;-40
2023/02/02 13:12:52;;;;;;;8.90;5.50;;;;;;;3.57;70.87;98421.55;106876;1263;74148;-40
2023/02/02 13:15:21;;;;;;;9.30;5.20;;;;;;;3.62;70.88;98416.64;106874;1263;69667;-40
2023/02/02 13:17:56;;;;;;;10.80;6.20;;;;;;;3.61;70.66;98417.91;106967;1265;73579;-40
2023/02/02 13:20:44;;;;;;;8.50;5.20;;;;;;;3.57;70.46;98418.25;106922;1263;59648;-40
2023/02/02 13:23:31;;;;;;;10.60;5.60;;;;;;;3.54;70.71;98422.66;106940;1263;61226;-40
2023/02/02 13:26:11;;;;;;;10.50;5.50;;;;;;;3.48;71.13;98418.89;106950;1262;74091;-39
2023/02/02 13:29:04;;;;;;;8.40;5.30;;;;;;;3.42;71.22;98419.09;106965;1262;69647;-39
2023/02/02 13:31:33;;;;;;;9.40;5.50;;;;;;;3.48;71.39;98422.77;106941;1262;73980;-40
2023/02/02 13:34:10;;;;;;;9.70;5.80;;;;;;;3.52;71.19;98424.67;106982;1261;60765;-40
2023/02/02 13:36:39;;;;;;;11.80;6.50;;;;;;;3.55;71.22;98429.89;106941;1263;60367;-39
2023/02/02 13:39:16;;;;;;;9.40;6.20;;;;;;;3.56;71.11;98426.92;106959;1263;73930;-40
2023/02/02 13:41:45;;;;;;;11.50;5.80;;;;;;;3.54;71.15;98424.51;106908;1263;69644;-40
2023/02/02 13:44:18;;;;;;;10.70;6.20;;;;;;;3.53;71.38;98428.06;106991;1262;73794;-40
2023/02/02 13:47:10;;;;;;;10.00;7.00;;;;;;;3.50;71.23;98429.58;106949;1262;62230;-40
2023/02/02 13:49:43;;;;;;;11.10;6.60;;;;;;;3.52;71.18;98437.45;106937;1263;61374;-39
2023/02/02 13:52:33;;;;;;;10.80;7.20;;;;;;;3.51;71.19;98438.34;106977;1263;74628;-40
2023/02/02 13:55:02;;;;;;;15.20;8.20;;;;;;;3.46;71.89;98442.19;106940;1262;68007;-39
2023/02/02 13:58:25;;;;;;;17.20;9.80;;;;;;;3.37;72.51;98448.23;106979;1262;73907;-40
2023/02/02 14:00:58;;;;;;;17.50;9.70;;;;;;;3.24;73.72;98451.79;106647;1267;61292;-39
2023/02/02 14:03:37;;;;;;;15.00;9.00;;;;;;;3.13;74.33;98450.73;106931;1263;61558;-39
2023/02/02 14:06:19;;;;;;;13.00;8.00;;;;;;;3.07;75.03;98454.21;106923;1263;74249;-40
2023/02/02 14:08:59;;;;;;;13.80;8.50;;;;;;;2.97;75.44;98456.86;106940;1263;69946;-40
2023/02/02 14:11:34;;;;;;;10.80;7.80;;;;;;;2.87;76.10;98456.43;106959;1263;73527;-39
2023/02/02 14:14:30;;;;;;;15.00;8.30;;;;;;;2.78;76.48;98455.20;106961;1262;59591;-40
2023/02/02 14:17:06;;;;;;;13.00;8.20;;;;;;;2.68;77.18;98459.05;106934;1261;61582;-39
2023/02/02 14:19:34;;;;;;;11.10;7.40;;;;;;;2.65;77.48;98456.52;106967;1263;73412;-40
2023/02/02 14:22:04;;;;;;;13.20;8.20;;;;;;;2.67;77.84;98460.53;106957;1263;69945;-39
2023/02/02 14:24:35;;;;;;;13.40;9.40;;;;;;;2.65;78.20;98462.20;106962;1261;72212;-40
2023/02/02 14:27:06;;;;;;;16.30;9.60;;;;;;;2.64;78.38;98461.66;106998;1263;59628;-40
2023/02/02 14:29:44;;;;;;;15.90;9.80;;;;;;;2.61;78.46;98465.18;106978;1263;59978;-40
2023/02/02 14:32:23;;;;;;;12.90;7.30;;;;;;;2.59;78.80;98469.02;106956;1262;74227;-40
2023/02/02 14:34:54;;;;;;;12.30;8.70;;;;;;;2.60;78.92;98467.37;106969;1261;69677;-40
2023/02/02 14:37:22;;;;;;;15.80;10.20;;;;;;;2.64;78.68;98468.33;106955;1265;73587;-40
2023/02/02 14:40:06;;;;;;;14.80;9.40;;;;;;;2.65;78.98;98467.60;106941;1263;61586;-40
2023/02/02 14:45:38;;;;;;;13.30;9.10;;;;;;;2.54;79.20;98470.02;106929;1263;74287;-39
2023/02/02 14:48:22;;;;;;;13.20;9.70;;;;;;;2.50;79.32;98471.44;106965;1262;69894;-39
2023/02/02 14:50:55;;;;;;;13.10;8.90;;;;;;;2.58;79.30;98471.70;106980;1263;71990;-40
2023/02/02 14:53:36;;;;;;;14.90;8.70;;;;;;;2.64;79.24;98475.65;107047;1262;60686;-40
2023/02/02 14:56:10;;;;;;;14.00;8.80;;;;;;;2.67;79.13;98480.34;106968;1263;60356;-40